sensor_id;sensor_type;location;lat;lon;timestamp;P1;durP1;ratioP1;P2;durP2;ratioP2
19869;SDS011;10097;50.862;4.696;2023-06-22T00:01:51;10.98;;;5.43;;
19869;SDS011;10097;50.862;4.696;2023-06-22T00:04:16;8.80;;;4.65;;
19869;SDS011;10097;50.862;4.696;2023-06-22T00:06:42;15.40;;;5.13;;
19869;SDS011;10097;50.862;4.696;2023-06-22T00:09:08;9.73;;;5.22;;
19869;SDS011;10097;50.862;4.696;2023-06-22T00:11:35;10.43;;;4.70;;
19869;SDS011;10097;50.862;4.696;2023-06-22T00:14:01;9.75;;;4.68;;
19869;SDS011;10097;50.862;4.696;2023-06-22T00:16:27;10.27;;;4.60;;
19869;SDS011;10097;50.862;4.696;2023-06-22T00:18:53;11.80;;;5.55;;
19869;SDS011;10097;50.862;4.696;2023-06-22T00:21:18;9.52;;;4.57;;
19869;SDS011;10097;50.862;4.696;2023-06-22T00:23:46;8.85;;;4.53;;
19869;SDS011;10097;50.862;4.696;2023-06-22T00:26:12;10.13;;;4.60;;
19869;SDS011;10097;50.862;4.696;2023-06-22T00:28:38;9.45;;;4.20;;
19869;SDS011;10097;50.862;4.696;2023-06-22T00:31:04;8.55;;;4.45;;
19869;SDS011;10097;50.862;4.696;2023-06-22T00:33:30;8.88;;;3.92;;
19869;SDS011;10097;50.862;4.696;2023-06-22T00:35:56;9.93;;;4.57;;
19869;SDS011;10097;50.862;4.696;2023-06-22T00:38:22;7.95;;;4.40;;
19869;SDS011;10097;50.862;4.696;2023-06-22T00:40:48;11.45;;;4.82;;
19869;SDS011;10097;50.862;4.696;2023-06-22T00:43:13;10.23;;;5.18;;
19869;SDS011;10097;50.862;4.696;2023-06-22T00:45:39;10.07;;;5.43;;
19869;SDS011;10097;50.862;4.696;2023-06-22T00:48:06;13.07;;;5.45;;
19869;SDS011;10097;50.862;4.696;2023-06-22T00:50:33;11.13;;;5.78;;
19869;SDS011;10097;50.862;4.696;2023-06-22T00:53:07;9.93;;;5.35;;
19869;SDS011;10097;50.862;4.696;2023-06-22T00:55:43;10.65;;;5.32;;
19869;SDS011;10097;50.862;4.696;2023-06-22T00:58:16;11.20;;;5.32;;
19869;SDS011;10097;50.862;4.696;2023-06-22T01:00:42;9.48;;;5.22;;
19869;SDS011;10097;50.862;4.696;2023-06-22T01:03:07;10.00;;;5.43;;
19869;SDS011;10097;50.862;4.696;2023-06-22T01:05:33;10.52;;;5.25;;
19869;SDS011;10097;50.862;4.696;2023-06-22T01:10:51;9.15;;;4.93;;
19869;SDS011;10097;50.862;4.696;2023-06-22T01:13:45;9.85;;;4.95;;
19869;SDS011;10097;50.862;4.696;2023-06-22T01:18:40;12.77;;;4.80;;
19869;SDS011;10097;50.862;4.696;2023-06-22T01:21:11;10.85;;;4.93;;
19869;SDS011;10097;50.862;4.696;2023-06-22T01:26:25;9.68;;;4.80;;
19869;SDS011;10097;50.862;4.696;2023-06-22T01:29:14;11.27;;;5.25;;
19869;SDS011;10097;50.862;4.696;2023-06-22T01:31:43;12.02;;;5.03;;
19869;SDS011;10097;50.862;4.696;2023-06-22T01:34:10;10.32;;;5.28;;
19869;SDS011;10097;50.862;4.696;2023-06-22T01:36:37;12.52;;;6.35;;
19869;SDS011;10097;50.862;4.696;2023-06-22T01:39:04;11.90;;;5.43;;
19869;SDS011;10097;50.862;4.696;2023-06-22T01:41:33;10.90;;;5.20;;
19869;SDS011;10097;50.862;4.696;2023-06-22T01:44:00;10.57;;;5.50;;
19869;SDS011;10097;50.862;4.696;2023-06-22T01:46:27;11.02;;;5.32;;
19869;SDS011;10097;50.862;4.696;2023-06-22T01:48:54;11.15;;;5.40;;
19869;SDS011;10097;50.862;4.696;2023-06-22T01:51:20;10.93;;;5.57;;
19869;SDS011;10097;50.862;4.696;2023-06-22T01:53:46;12.40;;;5.95;;
19869;SDS011;10097;50.862;4.696;2023-06-22T01:56:13;13.02;;;5.28;;
19869;SDS011;10097;50.862;4.696;2023-06-22T01:58:45;12.63;;;5.50;;
19869;SDS011;10097;50.862;4.696;2023-06-22T02:01:38;10.45;;;5.30;;
19869;SDS011;10097;50.862;4.696;2023-06-22T02:04:19;11.00;;;4.90;;
19869;SDS011;10097;50.862;4.696;2023-06-22T02:06:49;10.05;;;5.00;;
19869;SDS011;10097;50.862;4.696;2023-06-22T02:09:21;10.98;;;5.57;;
19869;SDS011;10097;50.862;4.696;2023-06-22T02:11:48;8.80;;;4.90;;
19869;SDS011;10097;50.862;4.696;2023-06-22T02:14:19;11.20;;;5.57;;
19869;SDS011;10097;50.862;4.696;2023-06-22T02:16:46;9.15;;;5.15;;
19869;SDS011;10097;50.862;4.696;2023-06-22T02:19:12;11.32;;;5.55;;
19869;SDS011;10097;50.862;4.696;2023-06-22T02:21:41;14.27;;;5.82;;
19869;SDS011;10097;50.862;4.696;2023-06-22T02:24:06;9.30;;;5.30;;
19869;SDS011;10097;50.862;4.696;2023-06-22T02:26:32;10.40;;;5.15;;
19869;SDS011;10097;50.862;4.696;2023-06-22T02:28:59;13.05;;;5.50;;
19869;SDS011;10097;50.862;4.696;2023-06-22T02:31:25;10.20;;;5.03;;
19869;SDS011;10097;50.862;4.696;2023-06-22T02:33:55;12.70;;;5.80;;
19869;SDS011;10097;50.862;4.696;2023-06-22T02:36:24;9.98;;;5.57;;
19869;SDS011;10097;50.862;4.696;2023-06-22T02:38:52;10.70;;;5.22;;
19869;SDS011;10097;50.862;4.696;2023-06-22T02:41:19;10.50;;;5.50;;
19869;SDS011;10097;50.862;4.696;2023-06-22T02:43:47;10.70;;;5.38;;
19869;SDS011;10097;50.862;4.696;2023-06-22T02:46:13;11.45;;;5.93;;
19869;SDS011;10097;50.862;4.696;2023-06-22T02:48:40;11.40;;;5.38;;
19869;SDS011;10097;50.862;4.696;2023-06-22T02:51:06;12.35;;;6.13;;
19869;SDS011;10097;50.862;4.696;2023-06-22T02:53:32;8.95;;;4.70;;
19869;SDS011;10097;50.862;4.696;2023-06-22T02:55:58;10.52;;;4.90;;
19869;SDS011;10097;50.862;4.696;2023-06-22T02:58:23;10.32;;;5.53;;
19869;SDS011;10097;50.862;4.696;2023-06-22T03:00:49;10.27;;;5.13;;
19869;SDS011;10097;50.862;4.696;2023-06-22T03:03:18;9.55;;;5.13;;
19869;SDS011;10097;50.862;4.696;2023-06-22T03:05:44;11.88;;;5.55;;
19869;SDS011;10097;50.862;4.696;2023-06-22T03:08:10;9.27;;;5.38;;
19869;SDS011;10097;50.862;4.696;2023-06-22T03:10:36;10.73;;;5.75;;
19869;SDS011;10097;50.862;4.696;2023-06-22T03:13:02;16.30;;;5.95;;
19869;SDS011;10097;50.862;4.696;2023-06-22T03:15:27;11.77;;;6.10;;
19869;SDS011;10097;50.862;4.696;2023-06-22T03:17:54;11.00;;;5.25;;
19869;SDS011;10097;50.862;4.696;2023-06-22T03:20:20;9.48;;;5.30;;
19869;SDS011;10097;50.862;4.696;2023-06-22T03:22:46;12.02;;;5.63;;
19869;SDS011;10097;50.862;4.696;2023-06-22T03:25:13;13.95;;;6.45;;
19869;SDS011;10097;50.862;4.696;2023-06-22T03:27:39;12.20;;;5.10;;
19869;SDS011;10097;50.862;4.696;2023-06-22T03:30:07;12.73;;;6.53;;
19869;SDS011;10097;50.862;4.696;2023-06-22T03:32:33;14.07;;;5.97;;
19869;SDS011;10097;50.862;4.696;2023-06-22T03:34:59;12.48;;;6.13;;
19869;SDS011;10097;50.862;4.696;2023-06-22T03:37:25;13.35;;;6.30;;
19869;SDS011;10097;50.862;4.696;2023-06-22T03:39:51;13.35;;;6.20;;
19869;SDS011;10097;50.862;4.696;2023-06-22T03:42:17;13.20;;;6.70;;
19869;SDS011;10097;50.862;4.696;2023-06-22T03:44:43;12.85;;;7.10;;
19869;SDS011;10097;50.862;4.696;2023-06-22T03:47:09;11.15;;;6.40;;
19869;SDS011;10097;50.862;4.696;2023-06-22T03:49:35;11.50;;;6.43;;
19869;SDS011;10097;50.862;4.696;2023-06-22T03:52:01;14.48;;;6.82;;
19869;SDS011;10097;50.862;4.696;2023-06-22T03:54:30;12.82;;;6.63;;
19869;SDS011;10097;50.862;4.696;2023-06-22T03:56:56;12.23;;;6.50;;
19869;SDS011;10097;50.862;4.696;2023-06-22T03:59:23;13.02;;;6.88;;
19869;SDS011;10097;50.862;4.696;2023-06-22T04:01:49;10.18;;;6.25;;
19869;SDS011;10097;50.862;4.696;2023-06-22T04:04:15;11.18;;;6.78;;
19869;SDS011;10097;50.862;4.696;2023-06-22T04:06:42;14.93;;;7.70;;
19869;SDS011;10097;50.862;4.696;2023-06-22T04:09:08;14.75;;;7.43;;
19869;SDS011;10097;50.862;4.696;2023-06-22T04:11:33;13.60;;;6.90;;
19869;SDS011;10097;50.862;4.696;2023-06-22T04:13:59;13.73;;;6.75;;
19869;SDS011;10097;50.862;4.696;2023-06-22T04:16:25;15.18;;;7.28;;
19869;SDS011;10097;50.862;4.696;2023-06-22T04:18:51;13.70;;;6.63;;
19869;SDS011;10097;50.862;4.696;2023-06-22T04:21:16;16.25;;;7.30;;
19869;SDS011;10097;50.862;4.696;2023-06-22T04:23:44;12.98;;;7.30;;
19869;SDS011;10097;50.862;4.696;2023-06-22T04:26:11;14.23;;;7.38;;
19869;SDS011;10097;50.862;4.696;2023-06-22T04:28:37;14.32;;;7.47;;
19869;SDS011;10097;50.862;4.696;2023-06-22T04:31:02;14.80;;;8.30;;
19869;SDS011;10097;50.862;4.696;2023-06-22T04:33:28;13.05;;;7.18;;
19869;SDS011;10097;50.862;4.696;2023-06-22T04:35:54;14.02;;;7.78;;
19869;SDS011;10097;50.862;4.696;2023-06-22T04:38:22;15.80;;;8.55;;
19869;SDS011;10097;50.862;4.696;2023-06-22T04:40:48;13.70;;;7.90;;
19869;SDS011;10097;50.862;4.696;2023-06-22T04:43:14;15.52;;;7.93;;
19869;SDS011;10097;50.862;4.696;2023-06-22T04:45:40;14.95;;;7.25;;
19869;SDS011;10097;50.862;4.696;2023-06-22T04:48:06;13.25;;;7.63;;
19869;SDS011;10097;50.862;4.696;2023-06-22T04:50:33;13.95;;;7.78;;
19869;SDS011;10097;50.862;4.696;2023-06-22T04:52:59;14.57;;;7.82;;
19869;SDS011;10097;50.862;4.696;2023-06-22T04:55:25;16.40;;;8.98;;
19869;SDS011;10097;50.862;4.696;2023-06-22T04:57:50;14.00;;;8.38;;
19869;SDS011;10097;50.862;4.696;2023-06-22T05:00:17;12.95;;;8.07;;
19869;SDS011;10097;50.862;4.696;2023-06-22T05:02:44;14.30;;;8.60;;
19869;SDS011;10097;50.862;4.696;2023-06-22T05:05:11;14.25;;;8.65;;
19869;SDS011;10097;50.862;4.696;2023-06-22T05:07:49;15.55;;;8.60;;
19869;SDS011;10097;50.862;4.696;2023-06-22T05:10:18;15.75;;;8.15;;
19869;SDS011;10097;50.862;4.696;2023-06-22T05:12:45;18.85;;;9.10;;
19869;SDS011;10097;50.862;4.696;2023-06-22T05:15:11;11.82;;;7.30;;
19869;SDS011;10097;50.862;4.696;2023-06-22T05:17:37;13.38;;;6.75;;
19869;SDS011;10097;50.862;4.696;2023-06-22T05:20:08;13.13;;;6.28;;
19869;SDS011;10097;50.862;4.696;2023-06-22T05:22:34;13.10;;;6.82;;
19869;SDS011;10097;50.862;4.696;2023-06-22T05:25:00;15.93;;;7.40;;
19869;SDS011;10097;50.862;4.696;2023-06-22T05:27:26;16.90;;;8.23;;
19869;SDS011;10097;50.862;4.696;2023-06-22T05:29:52;13.60;;;7.72;;
19869;SDS011;10097;50.862;4.696;2023-06-22T05:32:17;11.38;;;6.80;;
19869;SDS011;10097;50.862;4.696;2023-06-22T05:34:43;13.05;;;6.95;;
19869;SDS011;10097;50.862;4.696;2023-06-22T05:37:09;14.85;;;7.10;;
19869;SDS011;10097;50.862;4.696;2023-06-22T05:39:35;13.57;;;6.80;;
19869;SDS011;10097;50.862;4.696;2023-06-22T05:42:04;15.35;;;7.15;;
19869;SDS011;10097;50.862;4.696;2023-06-22T05:44:33;13.48;;;7.25;;
19869;SDS011;10097;50.862;4.696;2023-06-22T05:46:59;14.63;;;7.18;;
19869;SDS011;10097;50.862;4.696;2023-06-22T05:49:25;16.35;;;7.57;;
19869;SDS011;10097;50.862;4.696;2023-06-22T05:51:55;14.35;;;8.07;;
19869;SDS011;10097;50.862;4.696;2023-06-22T05:54:21;17.05;;;8.57;;
19869;SDS011;10097;50.862;4.696;2023-06-22T05:56:47;16.05;;;8.20;;
19869;SDS011;10097;50.862;4.696;2023-06-22T05:59:13;18.67;;;9.40;;
19869;SDS011;10097;50.862;4.696;2023-06-22T06:01:39;15.13;;;8.65;;
19869;SDS011;10097;50.862;4.696;2023-06-22T06:04:05;16.63;;;8.52;;
19869;SDS011;10097;50.862;4.696;2023-06-22T06:06:33;16.48;;;9.32;;
19869;SDS011;10097;50.862;4.696;2023-06-22T06:09:02;15.65;;;8.93;;
19869;SDS011;10097;50.862;4.696;2023-06-22T06:11:28;17.75;;;9.55;;
19869;SDS011;10097;50.862;4.696;2023-06-22T06:13:54;16.48;;;9.27;;
19869;SDS011;10097;50.862;4.696;2023-06-22T06:16:20;14.68;;;8.77;;
19869;SDS011;10097;50.862;4.696;2023-06-22T06:18:46;15.10;;;7.38;;
19869;SDS011;10097;50.862;4.696;2023-06-22T06:21:13;18.50;;;8.40;;
19869;SDS011;10097;50.862;4.696;2023-06-22T06:23:39;14.98;;;8.50;;
19869;SDS011;10097;50.862;4.696;2023-06-22T06:26:05;18.25;;;9.38;;
19869;SDS011;10097;50.862;4.696;2023-06-22T06:28:32;15.90;;;9.05;;
19869;SDS011;10097;50.862;4.696;2023-06-22T06:30:58;16.75;;;9.30;;
19869;SDS011;10097;50.862;4.696;2023-06-22T06:33:23;18.15;;;10.68;;
19869;SDS011;10097;50.862;4.696;2023-06-22T06:35:49;17.30;;;9.02;;
19869;SDS011;10097;50.862;4.696;2023-06-22T06:38:15;18.90;;;9.20;;
19869;SDS011;10097;50.862;4.696;2023-06-22T06:40:41;18.33;;;9.27;;
19869;SDS011;10097;50.862;4.696;2023-06-22T06:43:06;20.48;;;9.55;;
19869;SDS011;10097;50.862;4.696;2023-06-22T06:45:32;16.27;;;8.82;;
19869;SDS011;10097;50.862;4.696;2023-06-22T06:47:59;15.63;;;9.70;;
19869;SDS011;10097;50.862;4.696;2023-06-22T06:50:25;27.02;;;10.60;;
19869;SDS011;10097;50.862;4.696;2023-06-22T06:52:50;19.52;;;9.65;;
19869;SDS011;10097;50.862;4.696;2023-06-22T06:55:16;18.13;;;10.52;;
19869;SDS011;10097;50.862;4.696;2023-06-22T06:57:42;19.80;;;10.35;;
19869;SDS011;10097;50.862;4.696;2023-06-22T07:00:11;21.63;;;10.65;;
19869;SDS011;10097;50.862;4.696;2023-06-22T07:02:43;18.65;;;9.88;;
19869;SDS011;10097;50.862;4.696;2023-06-22T07:05:10;20.23;;;10.90;;
19869;SDS011;10097;50.862;4.696;2023-06-22T07:07:36;16.70;;;9.73;;
19869;SDS011;10097;50.862;4.696;2023-06-22T07:10:02;16.50;;;9.38;;
19869;SDS011;10097;50.862;4.696;2023-06-22T07:12:29;21.02;;;9.93;;
19869;SDS011;10097;50.862;4.696;2023-06-22T07:15:00;15.57;;;8.75;;
19869;SDS011;10097;50.862;4.696;2023-06-22T07:17:30;15.38;;;8.48;;
19869;SDS011;10097;50.862;4.696;2023-06-22T07:19:56;12.10;;;6.95;;
19869;SDS011;10097;50.862;4.696;2023-06-22T07:22:21;13.48;;;7.28;;
19869;SDS011;10097;50.862;4.696;2023-06-22T07:24:47;12.73;;;6.85;;
19869;SDS011;10097;50.862;4.696;2023-06-22T07:27:14;14.77;;;6.15;;
19869;SDS011;10097;50.862;4.696;2023-06-22T07:29:43;14.10;;;6.47;;
19869;SDS011;10097;50.862;4.696;2023-06-22T07:32:09;12.07;;;5.60;;
19869;SDS011;10097;50.862;4.696;2023-06-22T07:34:34;11.85;;;5.85;;
19869;SDS011;10097;50.862;4.696;2023-06-22T07:37:00;14.63;;;7.07;;
19869;SDS011;10097;50.862;4.696;2023-06-22T07:39:26;10.35;;;6.28;;
19869;SDS011;10097;50.862;4.696;2023-06-22T07:41:52;11.82;;;6.07;;
19869;SDS011;10097;50.862;4.696;2023-06-22T07:44:17;13.20;;;6.18;;
19869;SDS011;10097;50.862;4.696;2023-06-22T07:46:43;11.93;;;6.38;;
19869;SDS011;10097;50.862;4.696;2023-06-22T07:49:09;11.52;;;6.25;;
19869;SDS011;10097;50.862;4.696;2023-06-22T07:51:34;20.48;;;7.10;;
19869;SDS011;10097;50.862;4.696;2023-06-22T07:54:01;13.07;;;6.20;;
19869;SDS011;10097;50.862;4.696;2023-06-22T07:56:27;14.90;;;6.35;;
19869;SDS011;10097;50.862;4.696;2023-06-22T07:58:53;14.55;;;6.93;;
19869;SDS011;10097;50.862;4.696;2023-06-22T08:01:19;13.63;;;6.45;;
19869;SDS011;10097;50.862;4.696;2023-06-22T08:03:47;13.10;;;6.00;;
19869;SDS011;10097;50.862;4.696;2023-06-22T08:06:13;12.57;;;5.78;;
19869;SDS011;10097;50.862;4.696;2023-06-22T08:08:39;13.27;;;6.55;;
19869;SDS011;10097;50.862;4.696;2023-06-22T08:11:05;16.98;;;8.85;;
19869;SDS011;10097;50.862;4.696;2023-06-22T08:13:31;18.52;;;6.13;;
19869;SDS011;10097;50.862;4.696;2023-06-22T08:15:57;10.57;;;5.45;;
19869;SDS011;10097;50.862;4.696;2023-06-22T08:18:22;10.93;;;6.25;;
19869;SDS011;10097;50.862;4.696;2023-06-22T08:20:48;12.95;;;6.55;;
19869;SDS011;10097;50.862;4.696;2023-06-22T08:23:14;10.02;;;5.22;;
19869;SDS011;10097;50.862;4.696;2023-06-22T08:25:40;11.30;;;5.38;;
19869;SDS011;10097;50.862;4.696;2023-06-22T08:28:08;13.57;;;5.90;;
19869;SDS011;10097;50.862;4.696;2023-06-22T08:30:34;12.32;;;6.15;;
19869;SDS011;10097;50.862;4.696;2023-06-22T08:33:00;13.27;;;5.10;;
19869;SDS011;10097;50.862;4.696;2023-06-22T08:35:26;16.52;;;5.60;;
19869;SDS011;10097;50.862;4.696;2023-06-22T08:37:51;15.82;;;6.38;;
19869;SDS011;10097;50.862;4.696;2023-06-22T08:40:19;14.38;;;5.57;;
19869;SDS011;10097;50.862;4.696;2023-06-22T08:42:46;12.98;;;5.05;;
19869;SDS011;10097;50.862;4.696;2023-06-22T08:45:12;15.23;;;5.07;;
19869;SDS011;10097;50.862;4.696;2023-06-22T08:47:38;13.50;;;5.20;;
19869;SDS011;10097;50.862;4.696;2023-06-22T08:50:06;10.85;;;5.03;;
19869;SDS011;10097;50.862;4.696;2023-06-22T08:52:33;11.35;;;5.10;;
19869;SDS011;10097;50.862;4.696;2023-06-22T08:54:59;11.90;;;4.72;;
19869;SDS011;10097;50.862;4.696;2023-06-22T08:57:25;13.05;;;5.53;;
19869;SDS011;10097;50.862;4.696;2023-06-22T08:59:51;13.05;;;5.07;;
19869;SDS011;10097;50.862;4.696;2023-06-22T09:02:23;12.48;;;5.10;;
19869;SDS011;10097;50.862;4.696;2023-06-22T09:04:55;12.38;;;4.85;;
19869;SDS011;10097;50.862;4.696;2023-06-22T09:07:22;10.38;;;5.00;;
19869;SDS011;10097;50.862;4.696;2023-06-22T09:09:49;11.18;;;4.97;;
19869;SDS011;10097;50.862;4.696;2023-06-22T09:12:14;13.60;;;5.15;;
19869;SDS011;10097;50.862;4.696;2023-06-22T09:14:40;12.30;;;4.97;;
19869;SDS011;10097;50.862;4.696;2023-06-22T09:17:06;16.13;;;5.15;;
19869;SDS011;10097;50.862;4.696;2023-06-22T09:19:32;14.13;;;4.97;;
19869;SDS011;10097;50.862;4.696;2023-06-22T09:21:58;10.75;;;5.00;;
19869;SDS011;10097;50.862;4.696;2023-06-22T09:24:24;13.10;;;5.18;;
19869;SDS011;10097;50.862;4.696;2023-06-22T09:26:50;10.43;;;4.75;;
19869;SDS011;10097;50.862;4.696;2023-06-22T09:29:16;10.75;;;4.85;;
19869;SDS011;10097;50.862;4.696;2023-06-22T09:31:44;10.25;;;5.07;;
19869;SDS011;10097;50.862;4.696;2023-06-22T09:34:10;10.30;;;4.93;;
19869;SDS011;10097;50.862;4.696;2023-06-22T09:36:36;9.80;;;5.47;;
19869;SDS011;10097;50.862;4.696;2023-06-22T09:39:01;11.07;;;5.90;;
19869;SDS011;10097;50.862;4.696;2023-06-22T09:41:31;11.68;;;6.20;;
19869;SDS011;10097;50.862;4.696;2023-06-22T09:43:56;13.73;;;5.95;;
19869;SDS011;10097;50.862;4.696;2023-06-22T09:46:22;16.33;;;7.70;;
19869;SDS011;10097;50.862;4.696;2023-06-22T09:48:50;15.18;;;7.50;;
19869;SDS011;10097;50.862;4.696;2023-06-22T09:51:16;13.25;;;7.63;;
19869;SDS011;10097;50.862;4.696;2023-06-22T09:53:41;17.40;;;9.00;;
19869;SDS011;10097;50.862;4.696;2023-06-22T09:56:07;22.02;;;10.45;;
19869;SDS011;10097;50.862;4.696;2023-06-22T09:58:39;18.08;;;10.65;;
19869;SDS011;10097;50.862;4.696;2023-06-22T10:01:06;21.08;;;12.02;;
19869;SDS011;10097;50.862;4.696;2023-06-22T10:03:32;22.63;;;12.20;;
19869;SDS011;10097;50.862;4.696;2023-06-22T10:05:57;23.20;;;13.02;;
19869;SDS011;10097;50.862;4.696;2023-06-22T10:08:23;23.10;;;12.82;;
19869;SDS011;10097;50.862;4.696;2023-06-22T10:10:49;21.00;;;11.55;;
19869;SDS011;10097;50.862;4.696;2023-06-22T10:13:14;16.98;;;11.30;;
19869;SDS011;10097;50.862;4.696;2023-06-22T10:15:41;18.70;;;11.38;;
19869;SDS011;10097;50.862;4.696;2023-06-22T10:18:08;18.88;;;11.65;;
19869;SDS011;10097;50.862;4.696;2023-06-22T10:20:34;16.80;;;11.52;;
19869;SDS011;10097;50.862;4.696;2023-06-22T10:22:59;20.73;;;12.05;;
19869;SDS011;10097;50.862;4.696;2023-06-22T10:25:26;21.13;;;12.13;;
19869;SDS011;10097;50.862;4.696;2023-06-22T10:27:51;21.55;;;13.23;;
19869;SDS011;10097;50.862;4.696;2023-06-22T10:30:17;21.60;;;14.82;;
19869;SDS011;10097;50.862;4.696;2023-06-22T10:32:43;26.17;;;16.05;;
19869;SDS011;10097;50.862;4.696;2023-06-22T10:35:09;24.65;;;15.63;;
19869;SDS011;10097;50.862;4.696;2023-06-22T10:37:38;27.15;;;17.60;;
19869;SDS011;10097;50.862;4.696;2023-06-22T10:40:04;27.98;;;18.38;;
19869;SDS011;10097;50.862;4.696;2023-06-22T10:42:30;28.60;;;18.98;;
19869;SDS011;10097;50.862;4.696;2023-06-22T10:44:56;27.58;;;18.25;;
19869;SDS011;10097;50.862;4.696;2023-06-22T10:47:22;26.30;;;18.75;;
19869;SDS011;10097;50.862;4.696;2023-06-22T10:49:47;25.88;;;18.33;;
19869;SDS011;10097;50.862;4.696;2023-06-22T10:52:13;23.95;;;16.30;;
19869;SDS011;10097;50.862;4.696;2023-06-22T10:54:39;26.42;;;16.65;;
19869;SDS011;10097;50.862;4.696;2023-06-22T10:57:04;32.85;;;18.75;;
19869;SDS011;10097;50.862;4.696;2023-06-22T10:59:30;27.05;;;17.08;;
19869;SDS011;10097;50.862;4.696;2023-06-22T11:01:56;28.70;;;17.73;;
19869;SDS011;10097;50.862;4.696;2023-06-22T11:04:23;28.10;;;17.38;;
19869;SDS011;10097;50.862;4.696;2023-06-22T11:06:49;27.23;;;17.95;;
19869;SDS011;10097;50.862;4.696;2023-06-22T11:09:15;31.33;;;18.33;;
19869;SDS011;10097;50.862;4.696;2023-06-22T11:11:45;28.52;;;18.77;;
19869;SDS011;10097;50.862;4.696;2023-06-22T11:14:14;26.33;;;18.60;;
19869;SDS011;10097;50.862;4.696;2023-06-22T11:16:40;32.60;;;20.42;;
19869;SDS011;10097;50.862;4.696;2023-06-22T11:19:05;30.77;;;19.83;;
19869;SDS011;10097;50.862;4.696;2023-06-22T11:21:31;31.35;;;19.90;;
19869;SDS011;10097;50.862;4.696;2023-06-22T11:23:58;28.88;;;18.17;;
19869;SDS011;10097;50.862;4.696;2023-06-22T11:26:24;27.80;;;20.08;;
19869;SDS011;10097;50.862;4.696;2023-06-22T11:28:52;27.30;;;19.50;;
19869;SDS011;10097;50.862;4.696;2023-06-22T11:31:18;28.50;;;20.45;;
19869;SDS011;10097;50.862;4.696;2023-06-22T11:33:44;31.83;;;19.27;;
19869;SDS011;10097;50.862;4.696;2023-06-22T11:36:11;29.27;;;20.92;;
19869;SDS011;10097;50.862;4.696;2023-06-22T11:38:37;30.25;;;20.13;;
19869;SDS011;10097;50.862;4.696;2023-06-22T11:41:05;30.98;;;20.75;;
19869;SDS011;10097;50.862;4.696;2023-06-22T11:43:34;30.25;;;22.17;;
19869;SDS011;10097;50.862;4.696;2023-06-22T11:46:00;30.58;;;21.20;;
19869;SDS011;10097;50.862;4.696;2023-06-22T11:48:27;33.28;;;21.40;;
19869;SDS011;10097;50.862;4.696;2023-06-22T11:50:53;32.22;;;22.48;;
19869;SDS011;10097;50.862;4.696;2023-06-22T11:53:20;31.30;;;22.45;;
19869;SDS011;10097;50.862;4.696;2023-06-22T11:55:46;33.28;;;22.85;;
19869;SDS011;10097;50.862;4.696;2023-06-22T11:58:13;33.55;;;22.55;;
19869;SDS011;10097;50.862;4.696;2023-06-22T12:00:39;38.45;;;25.85;;
19869;SDS011;10097;50.862;4.696;2023-06-22T12:03:05;36.60;;;25.17;;
19869;SDS011;10097;50.862;4.696;2023-06-22T12:05:30;35.13;;;25.10;;
19869;SDS011;10097;50.862;4.696;2023-06-22T12:07:56;33.28;;;25.25;;
19869;SDS011;10097;50.862;4.696;2023-06-22T12:10:24;38.88;;;25.92;;
19869;SDS011;10097;50.862;4.696;2023-06-22T12:12:51;34.20;;;24.58;;
19869;SDS011;10097;50.862;4.696;2023-06-22T12:15:16;39.72;;;26.17;;
19869;SDS011;10097;50.862;4.696;2023-06-22T12:17:42;37.90;;;27.20;;
19869;SDS011;10097;50.862;4.696;2023-06-22T12:20:08;39.40;;;27.40;;
19869;SDS011;10097;50.862;4.696;2023-06-22T12:22:34;39.97;;;26.27;;
19869;SDS011;10097;50.862;4.696;2023-06-22T12:25:00;38.10;;;26.15;;
19869;SDS011;10097;50.862;4.696;2023-06-22T12:27:26;42.30;;;27.77;;
19869;SDS011;10097;50.862;4.696;2023-06-22T12:29:52;39.00;;;27.20;;
19869;SDS011;10097;50.862;4.696;2023-06-22T12:32:18;39.50;;;27.20;;
19869;SDS011;10097;50.862;4.696;2023-06-22T12:34:44;39.97;;;27.67;;
19869;SDS011;10097;50.862;4.696;2023-06-22T12:37:10;37.70;;;27.95;;
19869;SDS011;10097;50.862;4.696;2023-06-22T12:39:35;41.97;;;27.98;;
19869;SDS011;10097;50.862;4.696;2023-06-22T12:42:01;37.33;;;27.27;;
19869;SDS011;10097;50.862;4.696;2023-06-22T12:44:27;40.10;;;27.33;;
19869;SDS011;10097;50.862;4.696;2023-06-22T12:46:53;38.00;;;27.80;;
19869;SDS011;10097;50.862;4.696;2023-06-22T12:49:18;42.42;;;29.10;;
19869;SDS011;10097;50.862;4.696;2023-06-22T12:51:44;37.88;;;27.75;;
19869;SDS011;10097;50.862;4.696;2023-06-22T12:54:10;41.42;;;28.95;;
19869;SDS011;10097;50.862;4.696;2023-06-22T12:56:37;36.17;;;27.60;;
19869;SDS011;10097;50.862;4.696;2023-06-22T12:59:03;43.70;;;29.00;;
19869;SDS011;10097;50.862;4.696;2023-06-22T13:01:31;42.67;;;28.90;;
19869;SDS011;10097;50.862;4.696;2023-06-22T13:03:57;40.03;;;28.25;;
19869;SDS011;10097;50.862;4.696;2023-06-22T13:06:24;41.55;;;28.58;;
19869;SDS011;10097;50.862;4.696;2023-06-22T13:08:50;38.75;;;28.10;;
19869;SDS011;10097;50.862;4.696;2023-06-22T13:11:16;44.70;;;28.70;;
19869;SDS011;10097;50.862;4.696;2023-06-22T13:13:41;40.95;;;29.42;;
19869;SDS011;10097;50.862;4.696;2023-06-22T13:16:08;34.88;;;25.45;;
19869;SDS011;10097;50.862;4.696;2023-06-22T13:18:34;38.00;;;27.63;;
19869;SDS011;10097;50.862;4.696;2023-06-22T13:21:01;43.10;;;29.58;;
19869;SDS011;10097;50.862;4.696;2023-06-22T13:23:27;42.85;;;29.20;;
19869;SDS011;10097;50.862;4.696;2023-06-22T13:25:52;41.30;;;28.27;;
19869;SDS011;10097;50.862;4.696;2023-06-22T13:28:18;40.63;;;29.45;;
19869;SDS011;10097;50.862;4.696;2023-06-22T13:30:45;40.92;;;29.42;;
19869;SDS011;10097;50.862;4.696;2023-06-22T13:33:12;41.92;;;29.80;;
19869;SDS011;10097;50.862;4.696;2023-06-22T13:35:41;42.25;;;30.00;;
19869;SDS011;10097;50.862;4.696;2023-06-22T13:38:08;48.53;;;29.85;;
19869;SDS011;10097;50.862;4.696;2023-06-22T13:40:34;42.65;;;31.73;;
19869;SDS011;10097;50.862;4.696;2023-06-22T13:43:00;43.28;;;30.67;;
19869;SDS011;10097;50.862;4.696;2023-06-22T13:45:26;45.63;;;31.90;;
19869;SDS011;10097;50.862;4.696;2023-06-22T13:47:52;47.22;;;33.15;;
19869;SDS011;10097;50.862;4.696;2023-06-22T13:50:17;44.47;;;31.08;;
19869;SDS011;10097;50.862;4.696;2023-06-22T13:52:43;46.35;;;33.15;;
19869;SDS011;10097;50.862;4.696;2023-06-22T13:55:09;45.45;;;31.63;;
19869;SDS011;10097;50.862;4.696;2023-06-22T13:57:35;42.78;;;31.02;;
19869;SDS011;10097;50.862;4.696;2023-06-22T14:00:01;44.92;;;31.92;;
19869;SDS011;10097;50.862;4.696;2023-06-22T14:02:29;43.10;;;31.27;;
19869;SDS011;10097;50.862;4.696;2023-06-22T14:04:55;41.00;;;31.88;;
19869;SDS011;10097;50.862;4.696;2023-06-22T14:07:21;42.88;;;31.50;;
19869;SDS011;10097;50.862;4.696;2023-06-22T14:09:46;40.45;;;30.08;;
19869;SDS011;10097;50.862;4.696;2023-06-22T14:12:12;44.97;;;31.00;;
19869;SDS011;10097;50.862;4.696;2023-06-22T14:14:38;40.28;;;27.52;;
19869;SDS011;10097;50.862;4.696;2023-06-22T14:17:04;39.88;;;29.17;;
19869;SDS011;10097;50.862;4.696;2023-06-22T14:19:30;39.15;;;28.92;;
19869;SDS011;10097;50.862;4.696;2023-06-22T14:21:56;39.97;;;29.25;;
19869;SDS011;10097;50.862;4.696;2023-06-22T14:24:22;42.00;;;28.77;;
19869;SDS011;10097;50.862;4.696;2023-06-22T14:26:48;41.63;;;28.65;;
19869;SDS011;10097;50.862;4.696;2023-06-22T14:29:14;37.65;;;27.80;;
19869;SDS011;10097;50.862;4.696;2023-06-22T14:31:40;38.55;;;27.98;;
19869;SDS011;10097;50.862;4.696;2023-06-22T14:34:06;37.35;;;28.65;;
19869;SDS011;10097;50.862;4.696;2023-06-22T14:36:31;42.47;;;29.55;;